createdAt,value
2018-10-02T00:00:24.083Z,7.90
2018-10-02T00:01:24.092Z,7.98
2018-10-02T00:02:24.070Z,7.87
2018-10-02T00:03:24.056Z,7.90
2018-10-02T00:04:24.053Z,7.87
2018-10-02T00:05:24.043Z,7.87
2018-10-02T00:06:24.026Z,7.83
2018-10-02T00:07:24.023Z,7.83
2018-10-02T00:08:24.009Z,7.90
2018-10-02T00:09:24.004Z,7.87
2018-10-02T00:10:23.991Z,7.85
2018-10-02T00:11:23.973Z,7.87
2018-10-02T00:12:23.964Z,7.86
2018-10-02T00:13:23.943Z,7.90
2018-10-02T00:14:23.935Z,7.85
2018-10-02T00:15:23.940Z,7.80
2018-10-02T00:16:23.917Z,7.85
2018-10-02T00:17:23.926Z,7.87
2018-10-02T00:18:23.892Z,7.90
2018-10-02T00:19:23.884Z,7.86
2018-10-02T00:20:23.875Z,7.82
2018-10-02T00:21:23.865Z,7.83
2018-10-02T00:22:23.881Z,7.86
2018-10-02T00:23:23.847Z,8.02
2018-10-02T00:24:23.828Z,7.86
2018-10-02T00:25:23.824Z,7.86
2018-10-02T00:26:23.805Z,7.92
2018-10-02T00:27:23.809Z,7.87
2018-10-02T00:28:23.796Z,7.89
2018-10-02T00:29:23.776Z,7.90
2018-10-02T00:30:23.775Z,7.87
2018-10-02T00:31:23.817Z,7.90
2018-10-02T00:32:23.933Z,7.95
2018-10-02T00:33:23.735Z,8.01
2018-10-02T00:34:23.719Z,8.04
2018-10-02T00:35:23.717Z,8.02
2018-10-02T00:36:23.693Z,8.01
2018-10-02T00:37:23.681Z,8.05
2018-10-02T00:38:23.675Z,8.02
2018-10-02T00:39:23.674Z,8.05
2018-10-02T00:40:23.664Z,8.04
2018-10-02T00:41:23.645Z,8.10
2018-10-02T00:42:23.632Z,8.02
2018-10-02T00:43:23.620Z,8.05
2018-10-02T00:44:23.616Z,8.05
2018-10-02T00:45:23.593Z,8.08
2018-10-02T00:46:23.586Z,8.05
2018-10-02T00:47:23.579Z,8.01
2018-10-02T00:48:23.581Z,7.98
2018-10-02T00:49:23.568Z,8.02
2018-10-02T00:50:23.559Z,8.10
2018-10-02T00:51:23.533Z,8.08
2018-10-02T00:52:23.527Z,8.07
2018-10-02T00:53:23.516Z,8.05
2018-10-02T00:54:23.513Z,8.11
2018-10-02T00:55:23.493Z,8.01
2018-10-02T00:56:23.473Z,8.00
2018-10-02T00:57:23.468Z,8.15
2018-10-02T00:58:23.456Z,8.01
2018-10-02T00:59:23.457Z,8.04
2018-10-02T01:00:23.437Z,8.05
2018-10-02T01:01:23.432Z,8.11
2018-10-02T01:02:23.413Z,8.10
2018-10-02T01:03:23.411Z,8.05
2018-10-02T01:04:23.399Z,8.07
2018-10-02T01:05:23.384Z,8.07
2018-10-02T01:06:23.373Z,8.00
2018-10-02T01:07:23.356Z,8.01
2018-10-02T01:08:23.343Z,7.97
2018-10-02T01:09:23.345Z,8.01
2018-10-02T01:10:23.324Z,8.04
2018-10-02T01:11:23.316Z,8.00
2018-10-02T01:12:23.309Z,8.00
2018-10-02T01:13:23.317Z,7.95
2018-10-02T01:14:23.308Z,8.00
2018-10-02T01:15:23.271Z,7.87
2018-10-02T01:16:23.256Z,7.92
2018-10-02T01:17:23.247Z,7.98
2018-10-02T01:18:23.238Z,7.98
2018-10-02T01:19:23.231Z,7.98
2018-10-02T01:20:23.231Z,7.87
2018-10-02T01:21:23.201Z,7.86
2018-10-02T01:22:23.193Z,7.98
2018-10-02T01:23:23.185Z,7.95
2018-10-02T01:24:23.178Z,7.95
2018-10-02T01:25:23.177Z,7.87
2018-10-02T01:26:23.166Z,7.95
2018-10-02T01:27:23.140Z,7.87
2018-10-02T01:28:23.125Z,7.90
2018-10-02T01:29:23.131Z,7.90
2018-10-02T01:30:23.110Z,7.97
2018-10-02T01:31:23.100Z,8.01
2018-10-02T01:32:23.093Z,8.04
2018-10-02T01:33:23.080Z,8.00
2018-10-02T01:34:23.068Z,7.95
2018-10-02T01:35:23.065Z,8.01
2018-10-02T01:36:23.060Z,8.00
2018-10-02T01:37:23.037Z,7.89
2018-10-02T01:38:23.023Z,7.92
2018-10-02T01:39:23.017Z,7.95
2018-10-02T01:40:23.012Z,7.95
2018-10-02T01:41:22.986Z,7.92
2018-10-02T01:42:22.977Z,7.98
2018-10-02T01:43:22.968Z,7.95
2018-10-02T01:44:22.959Z,7.98
2018-10-02T01:45:22.950Z,8.02
2018-10-02T01:46:22.945Z,8.00
2018-10-02T01:47:22.924Z,7.93
2018-10-02T01:48:22.912Z,7.90
2018-10-02T01:49:22.906Z,7.97
2018-10-02T01:50:22.893Z,7.97
2018-10-02T01:51:22.892Z,7.87
2018-10-02T01:52:22.873Z,7.97
2018-10-02T01:53:22.854Z,7.98
2018-10-02T01:54:22.845Z,7.89
2018-10-02T01:55:22.855Z,7.87
2018-10-02T01:56:22.831Z,7.89
2018-10-02T01:57:22.818Z,7.80
2018-10-02T01:58:22.806Z,7.83
2018-10-02T01:59:22.809Z,7.80
2018-10-02T02:00:22.784Z,7.72
2018-10-02T02:01:22.783Z,7.75
2018-10-02T02:02:22.759Z,7.69
2018-10-02T02:03:22.753Z,7.71
2018-10-02T02:04:22.743Z,7.74
2018-10-02T02:05:22.734Z,7.77
2018-10-02T02:06:22.736Z,7.83
2018-10-02T02:07:22.706Z,7.82
2018-10-02T02:08:22.693Z,7.72
2018-10-02T02:09:22.689Z,7.82
2018-10-02T02:10:22.676Z,7.74
2018-10-02T02:11:22.672Z,7.82
2018-10-02T02:12:22.656Z,7.83
2018-10-02T02:13:22.637Z,7.75
2018-10-02T02:14:22.628Z,7.75
2018-10-02T02:15:22.620Z,7.75
2018-10-02T02:16:22.625Z,7.77
2018-10-02T02:17:22.606Z,7.85
2018-10-02T02:18:22.595Z,7.77
2018-10-02T02:19:22.579Z,7.75
2018-10-02T02:20:22.563Z,7.75
2018-10-02T02:21:22.550Z,7.75
2018-10-02T02:22:22.577Z,7.74
2018-10-02T02:23:22.534Z,7.69
2018-10-02T02:24:22.528Z,7.68
2018-10-02T02:25:22.507Z,7.61
2018-10-02T02:26:22.503Z,7.67
2018-10-02T02:27:22.492Z,7.64
2018-10-02T02:28:22.492Z,7.63
2018-10-02T02:29:22.472Z,7.69
2018-10-02T02:30:22.460Z,7.69
2018-10-02T02:31:22.446Z,7.67
2018-10-02T02:32:22.432Z,7.68
2018-10-02T02:33:22.442Z,7.75
2018-10-02T02:34:22.413Z,7.71
2018-10-02T02:35:22.407Z,7.68
2018-10-02T02:36:22.396Z,7.74
2018-10-02T02:37:22.388Z,7.68
2018-10-02T02:38:22.371Z,7.69
2018-10-02T02:39:22.366Z,7.67
2018-10-02T02:40:22.345Z,7.58
2018-10-02T02:41:22.342Z,7.72
2018-10-02T02:42:22.328Z,7.60
2018-10-02T02:43:22.318Z,7.64
2018-10-02T02:44:22.310Z,7.68
2018-10-02T02:45:22.306Z,7.64
2018-10-02T02:46:22.280Z,7.68
2018-10-02T02:47:22.275Z,7.63
2018-10-02T02:48:22.265Z,7.64
2018-10-02T02:49:22.266Z,7.67
2018-10-02T02:50:22.243Z,7.61
2018-10-02T02:51:22.225Z,7.67
2018-10-02T02:52:22.233Z,7.67
2018-10-02T02:53:22.206Z,7.60
2018-10-02T02:54:22.225Z,7.67
2018-10-02T02:55:22.186Z,7.63
2018-10-02T02:56:22.178Z,7.64
2018-10-02T02:57:22.160Z,7.57
2018-10-02T02:58:22.156Z,7.53
2018-10-02T02:59:22.159Z,7.57
2018-10-02T03:00:22.136Z,7.61
2018-10-02T03:01:22.127Z,7.53
2018-10-02T03:02:22.112Z,7.53
2018-10-02T03:03:22.097Z,7.53
2018-10-02T03:04:22.083Z,7.52
2018-10-02T03:05:22.093Z,7.55
2018-10-02T03:06:22.067Z,7.53
2018-10-02T03:07:22.059Z,7.61
2018-10-02T03:08:22.056Z,7.53
2018-10-02T03:09:22.034Z,7.58
2018-10-02T03:10:22.033Z,7.57
2018-10-02T03:11:22.014Z,7.52
2018-10-02T03:12:22.004Z,7.53
2018-10-02T03:13:21.985Z,7.55
2018-10-02T03:14:21.976Z,7.57
2018-10-02T03:15:21.987Z,7.57
2018-10-02T03:16:21.965Z,7.61
2018-10-02T03:17:21.951Z,7.57
2018-10-02T03:18:21.937Z,7.48
2018-10-02T03:19:21.929Z,7.48
2018-10-02T03:20:21.909Z,7.53
2018-10-02T03:21:21.929Z,7.40
2018-10-02T03:22:21.902Z,7.42
2018-10-02T03:23:21.882Z,7.43
2018-10-02T03:24:21.875Z,7.39
2018-10-02T03:25:21.867Z,7.48
2018-10-02T03:26:21.853Z,7.43
2018-10-02T03:27:21.852Z,7.32
2018-10-02T03:28:21.828Z,7.45
2018-10-02T03:29:21.821Z,7.45
2018-10-02T03:30:21.805Z,7.39
2018-10-02T03:31:21.811Z,7.31
2018-10-02T03:32:21.779Z,7.34
2018-10-02T03:33:21.782Z,7.34
2018-10-02T03:34:21.763Z,7.39
2018-10-02T03:35:21.752Z,7.40
2018-10-02T03:36:21.744Z,7.31
2018-10-02T03:37:21.733Z,7.30
2018-10-02T03:38:21.739Z,7.25
2018-10-02T03:39:21.707Z,7.34
2018-10-02T03:40:21.694Z,7.39
2018-10-02T03:41:21.681Z,7.30
2018-10-02T03:42:21.674Z,7.35
2018-10-02T03:43:21.668Z,7.35
2018-10-02T03:44:21.691Z,7.32
2018-10-02T03:45:21.639Z,7.35
2018-10-02T03:46:21.629Z,7.37
2018-10-02T03:47:21.621Z,7.37
2018-10-02T03:48:21.615Z,7.32
2018-10-02T03:49:21.603Z,7.35
2018-10-02T03:50:21.598Z,7.46
2018-10-02T03:51:21.577Z,7.34
2018-10-02T03:52:21.562Z,7.34
2018-10-02T03:53:21.551Z,7.46
2018-10-02T03:54:21.562Z,7.40
2018-10-02T03:55:21.547Z,7.42
2018-10-02T03:56:21.530Z,7.42
2018-10-02T03:57:21.524Z,7.34
2018-10-02T03:58:21.503Z,7.37
2018-10-02T03:59:21.489Z,7.53
2018-10-02T04:00:21.489Z,7.48
2018-10-02T04:01:21.471Z,7.48
2018-10-02T04:02:21.459Z,7.52
2018-10-02T04:03:21.497Z,7.49
2018-10-02T04:04:21.432Z,7.55
2018-10-02T04:05:21.419Z,7.46
2018-10-02T04:06:21.428Z,7.55
2018-10-02T04:07:21.411Z,7.57
2018-10-02T04:08:21.396Z,7.63
2018-10-02T04:09:21.389Z,7.55
2018-10-02T04:10:21.375Z,7.61
2018-10-02T04:11:21.358Z,7.61
2018-10-02T04:12:21.355Z,7.60
2018-10-02T04:13:21.406Z,7.68
2018-10-02T04:14:21.327Z,7.69
2018-10-02T04:15:21.320Z,7.75
2018-10-02T04:16:21.308Z,7.75
2018-10-02T04:17:25.450Z,7.75
2018-10-02T04:18:21.281Z,7.79
2018-10-02T04:19:21.276Z,7.75
2018-10-02T04:20:21.264Z,7.83
2018-10-02T04:21:21.254Z,7.79
2018-10-02T04:22:21.251Z,7.85
2018-10-02T04:23:21.241Z,7.89
2018-10-02T04:24:21.213Z,7.89
2018-10-02T04:25:21.216Z,7.92
2018-10-02T04:26:21.195Z,7.92
2018-10-02T04:27:21.189Z,7.85
2018-10-02T04:28:21.201Z,7.87
2018-10-02T04:29:21.167Z,7.90
2018-10-02T04:30:21.173Z,7.86
2018-10-02T04:31:21.142Z,7.92
2018-10-02T04:32:21.126Z,7.89
2018-10-02T04:33:21.135Z,7.90
2018-10-02T04:34:21.121Z,7.95
2018-10-02T04:35:21.099Z,7.90
2018-10-02T04:36:21.089Z,7.93
2018-10-02T04:37:21.074Z,8.01
2018-10-02T04:38:21.085Z,8.00
2018-10-02T04:39:21.088Z,7.93
2018-10-02T04:40:21.049Z,7.95
2018-10-02T04:41:21.039Z,8.02
2018-10-02T04:42:21.026Z,8.01
2018-10-02T04:43:21.021Z,8.01
2018-10-02T04:44:21.030Z,7.98
2018-10-02T04:45:20.999Z,8.00
2018-10-02T04:46:20.980Z,8.01
2018-10-02T04:47:20.974Z,8.05
2018-10-02T04:48:20.975Z,8.02
2018-10-02T04:49:20.964Z,8.05
2018-10-02T04:50:20.950Z,8.04
2018-10-02T04:51:20.938Z,7.98
2018-10-02T04:52:20.929Z,7.98
2018-10-02T04:53:20.929Z,8.00
2018-10-02T04:54:20.914Z,8.02
2018-10-02T04:55:20.898Z,8.01
2018-10-02T04:56:20.989Z,8.04
2018-10-02T04:57:20.856Z,8.07
2018-10-02T04:58:20.847Z,7.97
2018-10-02T04:59:20.841Z,8.01
2018-10-02T05:00:20.844Z,8.08
2018-10-02T05:01:20.825Z,8.02
2018-10-02T05:02:20.834Z,8.00
2018-10-02T05:03:20.799Z,8.07
2018-10-02T05:04:20.779Z,8.08
2018-10-02T05:05:20.796Z,8.05
2018-10-02T05:06:20.859Z,7.98
2018-10-02T05:07:20.750Z,8.07
2018-10-02T05:08:20.837Z,8.01
2018-10-02T05:09:20.755Z,8.11
2018-10-02T05:10:20.718Z,8.07
2018-10-02T05:11:20.733Z,8.10
2018-10-02T05:12:20.726Z,8.08
2018-10-02T05:13:20.690Z,8.10
2018-10-02T05:14:20.915Z,8.04
2018-10-02T05:15:20.663Z,8.12
2018-10-02T05:16:20.651Z,8.10
2018-10-02T05:17:20.651Z,8.12
2018-10-02T05:18:20.630Z,8.02
2018-10-02T05:19:20.622Z,8.12
2018-10-02T05:20:20.615Z,8.15
2018-10-02T05:21:20.595Z,8.07
2018-10-02T05:22:20.598Z,8.18
2018-10-02T05:23:20.581Z,8.10
2018-10-02T05:24:20.572Z,8.16
2018-10-02T05:25:20.572Z,8.18
2018-10-02T05:26:20.554Z,8.04
2018-10-02T05:27:20.612Z,8.15
2018-10-02T05:28:20.523Z,8.23
2018-10-02T05:29:20.523Z,8.20
2018-10-02T05:30:20.500Z,8.19
2018-10-02T05:31:20.491Z,8.22
2018-10-02T05:32:20.494Z,8.20
2018-10-02T05:33:20.473Z,8.28
2018-10-02T05:34:20.466Z,8.16
2018-10-02T05:35:20.603Z,8.25
2018-10-02T05:36:20.433Z,8.25
2018-10-02T05:37:20.448Z,8.26
2018-10-02T05:38:20.422Z,8.22
2018-10-02T05:39:20.402Z,8.33
2018-10-02T05:40:20.389Z,8.28
2018-10-02T05:41:20.379Z,8.25
2018-10-02T05:42:20.369Z,8.37
2018-10-02T05:43:20.378Z,8.34
2018-10-02T05:44:20.354Z,8.36
2018-10-02T05:45:20.343Z,8.34
2018-10-02T05:46:20.329Z,8.34
2018-10-02T05:47:20.316Z,8.34
2018-10-02T05:48:20.316Z,8.36
2018-10-02T05:49:20.300Z,8.33
2018-10-02T05:50:20.284Z,8.41
2018-10-02T05:51:20.280Z,8.30
2018-10-02T05:52:20.282Z,8.36
2018-10-02T05:53:20.248Z,8.30
2018-10-02T05:54:20.244Z,8.45
2018-10-02T05:55:20.231Z,8.45
2018-10-02T05:56:20.226Z,8.43
2018-10-02T05:57:20.212Z,8.43
2018-10-02T05:58:20.298Z,8.41
2018-10-02T05:59:20.190Z,8.44
2018-10-02T06:00:20.171Z,8.52
2018-10-02T06:01:20.162Z,8.44
2018-10-02T06:02:20.153Z,8.38
2018-10-02T06:03:20.161Z,8.44
2018-10-02T06:04:20.136Z,8.45
2018-10-02T06:05:20.126Z,8.47
2018-10-02T06:06:20.114Z,8.47
2018-10-02T06:07:20.099Z,8.53
2018-10-02T06:08:20.085Z,8.44
2018-10-02T06:09:20.093Z,8.47
2018-10-02T06:10:20.069Z,8.47
2018-10-02T06:11:20.070Z,8.47
2018-10-02T06:12:20.041Z,8.48
2018-10-02T06:13:20.032Z,8.47
2018-10-02T06:14:20.038Z,8.48
2018-10-02T06:15:20.015Z,8.48
2018-10-02T06:16:20.008Z,8.47
2018-10-02T06:17:19.995Z,8.62
2018-10-02T06:18:19.982Z,8.58
2018-10-02T06:19:19.970Z,8.55
2018-10-02T06:20:19.969Z,8.61
2018-10-02T06:21:19.963Z,8.55
2018-10-02T06:22:19.939Z,8.58
2018-10-02T06:23:19.929Z,8.56
2018-10-02T06:24:19.919Z,8.59
2018-10-02T06:25:19.901Z,8.61
2018-10-02T06:26:19.903Z,8.63
2018-10-02T06:27:19.885Z,8.59
2018-10-02T06:28:19.876Z,8.59
2018-10-02T06:29:19.865Z,8.56
2018-10-02T06:30:19.912Z,8.74
2018-10-02T06:31:19.839Z,8.66
2018-10-02T06:32:19.823Z,8.65
2018-10-02T06:33:19.813Z,8.76
2018-10-02T06:34:19.815Z,8.76
2018-10-02T06:35:19.798Z,8.70
2018-10-02T06:36:19.804Z,8.73
2018-10-02T06:37:19.778Z,8.68
2018-10-02T06:38:19.929Z,8.73
2018-10-02T06:39:19.751Z,8.81
2018-10-02T06:40:19.744Z,8.70
2018-10-02T06:41:19.735Z,8.79
2018-10-02T06:42:19.732Z,8.84
2018-10-02T06:43:19.708Z,8.77
2018-10-02T06:44:19.711Z,8.87
2018-10-02T06:45:19.686Z,8.83
2018-10-02T06:46:19.680Z,8.89
2018-10-02T06:47:19.684Z,8.84
2018-10-02T06:48:19.666Z,8.87
2018-10-02T06:49:19.650Z,8.86
2018-10-02T06:50:19.637Z,8.83
2018-10-02T06:51:19.771Z,8.91
2018-10-02T06:52:19.806Z,8.95
2018-10-02T06:53:19.611Z,8.89
2018-10-02T06:54:19.590Z,8.94
2018-10-02T06:55:19.594Z,8.87
2018-10-02T06:56:19.579Z,8.94
2018-10-02T06:57:19.591Z,8.91
2018-10-02T06:58:19.560Z,8.92
2018-10-02T06:59:19.537Z,8.89
2018-10-02T07:00:19.557Z,8.91
2018-10-02T07:01:19.518Z,8.92
2018-10-02T07:02:19.504Z,8.91
2018-10-02T07:03:19.506Z,8.92
2018-10-02T07:04:19.477Z,8.98
2018-10-02T07:05:19.466Z,8.98
2018-10-02T07:06:19.458Z,8.95
2018-10-02T07:07:19.477Z,9.02
2018-10-02T07:08:19.443Z,8.99
2018-10-02T07:09:19.447Z,8.95
2018-10-02T07:10:19.419Z,8.95
2018-10-02T07:11:19.403Z,8.94
2018-10-02T07:12:19.391Z,8.98
2018-10-02T07:13:19.393Z,8.95
2018-10-02T07:14:19.375Z,8.98
2018-10-02T07:15:19.380Z,8.92
2018-10-02T07:16:19.350Z,8.91
2018-10-02T07:17:19.343Z,8.89
2018-10-02T07:18:19.333Z,8.94
2018-10-02T07:19:19.320Z,8.91
2018-10-02T07:20:19.326Z,8.83
2018-10-02T07:21:19.310Z,8.84
2018-10-02T07:22:19.289Z,8.86
2018-10-02T07:23:19.282Z,8.81
2018-10-02T07:24:19.263Z,8.83
2018-10-02T07:25:19.264Z,8.77
2018-10-02T07:26:19.244Z,8.76
2018-10-02T07:27:19.338Z,8.73
2018-10-02T07:28:19.267Z,8.73
2018-10-02T07:29:19.213Z,8.73
2018-10-02T07:30:19.220Z,8.77
2018-10-02T07:31:19.208Z,8.79
2018-10-02T07:32:19.179Z,8.66
2018-10-02T07:33:19.170Z,8.73
2018-10-02T07:34:19.161Z,8.70
2018-10-02T07:35:19.141Z,8.73
2018-10-02T07:36:19.145Z,8.80
2018-10-02T07:37:19.123Z,8.65
2018-10-02T07:38:19.109Z,8.84
2018-10-02T07:39:19.106Z,8.74
2018-10-02T07:40:19.097Z,8.80
2018-10-02T07:41:19.092Z,8.84
2018-10-02T07:42:19.126Z,8.89
2018-10-02T07:43:19.076Z,8.83
2018-10-02T07:44:19.048Z,8.94
2018-10-02T07:45:19.038Z,8.94
2018-10-02T07:46:19.047Z,8.91
2018-10-02T07:47:19.011Z,8.94
2018-10-02T07:48:19.067Z,8.95
2018-10-02T07:49:19.002Z,8.96
2018-10-02T07:50:18.980Z,8.92
2018-10-02T07:51:18.976Z,8.86
2018-10-02T07:52:18.963Z,8.94
2018-10-02T07:53:18.971Z,8.89
2018-10-02T07:54:18.959Z,8.91
2018-10-02T07:55:18.931Z,8.83
2018-10-02T07:56:18.916Z,8.76
2018-10-02T07:57:18.908Z,8.87
2018-10-02T07:58:18.891Z,8.83
2018-10-02T07:59:18.889Z,8.86
2018-10-02T08:00:18.889Z,8.77
2018-10-02T08:01:18.861Z,8.74
2018-10-02T08:02:18.862Z,8.77
2018-10-02T08:03:18.854Z,8.79
2018-10-02T08:04:18.834Z,8.77
2018-10-02T08:05:18.850Z,8.71
2018-10-02T08:06:18.834Z,8.76
2018-10-02T08:07:18.795Z,8.71
2018-10-02T08:08:18.787Z,8.71
2018-10-02T08:09:18.778Z,8.73
2018-10-02T08:10:18.764Z,8.74
2018-10-02T08:11:18.774Z,8.80
2018-10-02T08:12:18.939Z,8.83
2018-10-02T08:13:18.736Z,8.77
2018-10-02T08:14:18.727Z,8.76
2018-10-02T08:15:18.720Z,8.87
2018-10-02T08:16:18.731Z,8.86
2018-10-02T08:17:18.692Z,8.79
2018-10-02T08:18:18.684Z,8.91
2018-10-02T08:19:18.670Z,8.94
2018-10-02T08:20:18.659Z,8.92
2018-10-02T08:21:18.645Z,8.95
2018-10-02T08:22:18.647Z,8.92
2018-10-02T08:23:18.628Z,8.87
2018-10-02T08:24:18.615Z,8.98
2018-10-02T08:25:18.610Z,8.94
2018-10-02T08:26:18.598Z,8.98
2018-10-02T08:27:18.677Z,8.94
2018-10-02T08:28:18.590Z,8.98
2018-10-02T08:29:18.585Z,8.94
2018-10-02T08:30:18.595Z,8.94
2018-10-02T08:31:18.542Z,8.94
2018-10-02T08:32:18.531Z,8.99
2018-10-02T08:33:18.532Z,8.98
2018-10-02T08:34:18.504Z,8.94
2018-10-02T08:35:18.551Z,8.99
2018-10-02T08:36:18.568Z,9.01
2018-10-02T08:37:18.474Z,8.98
2018-10-02T08:38:18.465Z,8.89
2018-10-02T08:39:18.479Z,9.01
2018-10-02T08:40:18.441Z,8.96
2018-10-02T08:41:18.427Z,9.04
2018-10-02T08:42:18.413Z,9.05
2018-10-02T08:43:18.459Z,9.02
2018-10-02T08:44:18.418Z,9.04
2018-10-02T08:45:18.387Z,9.02
2018-10-02T08:46:18.379Z,9.01
2018-10-02T08:47:18.361Z,9.04
2018-10-02T08:48:18.353Z,9.10
2018-10-02T08:49:18.343Z,9.11
2018-10-02T08:50:18.346Z,9.14
2018-10-02T08:51:18.318Z,9.11
2018-10-02T08:52:18.386Z,9.15
2018-10-02T08:53:18.299Z,9.14
2018-10-02T08:54:18.284Z,9.10
2018-10-02T08:55:18.291Z,9.08
2018-10-02T08:56:18.267Z,9.17
2018-10-02T08:57:18.259Z,9.05
2018-10-02T08:58:18.250Z,9.10
2018-10-02T08:59:18.252Z,9.08
2018-10-02T09:00:18.234Z,9.10
2018-10-02T09:01:18.212Z,9.18
2018-10-02T09:02:18.221Z,9.10
2018-10-02T09:03:18.254Z,9.13
2018-10-02T09:04:18.179Z,9.14
2018-10-02T09:05:18.182Z,9.23
2018-10-02T09:06:18.154Z,9.11
2018-10-02T09:07:18.152Z,9.10
2018-10-02T09:08:18.139Z,9.11
2018-10-02T09:09:18.126Z,9.23
2018-10-02T09:10:18.130Z,9.21
2018-10-02T09:11:18.098Z,9.26
2018-10-02T09:12:18.093Z,9.24
2018-10-02T09:13:18.080Z,9.23
2018-10-02T09:14:18.065Z,9.23
2018-10-02T09:15:18.096Z,9.21
2018-10-02T09:16:18.167Z,9.24
2018-10-02T09:17:18.038Z,9.26
2018-10-02T09:18:18.030Z,9.17
2018-10-02T09:19:18.016Z,9.23
2018-10-02T09:20:18.047Z,9.29
2018-10-02T09:21:17.996Z,9.29
2018-10-02T09:22:17.987Z,9.24
2018-10-02T09:23:17.968Z,9.18
2018-10-02T09:24:17.962Z,9.24
2018-10-02T09:25:17.977Z,9.18
2018-10-02T09:26:17.952Z,9.17
2018-10-02T09:27:17.931Z,9.11
2018-10-02T09:28:17.937Z,9.15
2018-10-02T09:29:17.906Z,9.15
2018-10-02T09:30:17.928Z,9.13
2018-10-02T09:31:17.937Z,9.20
2018-10-02T09:32:17.870Z,9.04
2018-10-02T09:33:17.874Z,9.11
2018-10-02T09:34:17.850Z,9.11
2018-10-02T09:35:17.850Z,9.08
2018-10-02T09:36:17.829Z,9.08
2018-10-02T09:37:17.869Z,9.11
2018-10-02T09:38:17.815Z,9.10
2018-10-02T09:39:18.187Z,9.10
2018-10-02T09:40:17.786Z,9.05
2018-10-02T09:41:17.777Z,9.18
2018-10-02T09:42:17.767Z,9.10
2018-10-02T09:43:17.790Z,9.08
2018-10-02T09:44:17.739Z,9.01
2018-10-02T09:45:17.728Z,9.04
2018-10-02T09:46:17.716Z,9.05
2018-10-02T09:47:17.715Z,9.10
2018-10-02T09:48:17.733Z,9.08
2018-10-02T09:49:17.690Z,9.11
2018-10-02T09:50:17.681Z,9.11
2018-10-02T09:51:17.664Z,9.08
2018-10-02T09:52:17.653Z,9.14
2018-10-02T09:53:17.654Z,9.15
2018-10-02T09:54:17.636Z,9.04
2018-10-02T09:55:17.620Z,9.11
2018-10-02T09:56:17.612Z,9.10
2018-10-02T09:57:17.598Z,9.13
2018-10-02T09:58:17.596Z,9.04
2018-10-02T09:59:17.584Z,9.04
2018-10-02T10:00:17.586Z,9.13
2018-10-02T10:01:17.606Z,9.14
2018-10-02T10:02:17.550Z,9.23
2018-10-02T10:03:17.530Z,9.24
2018-10-02T10:04:17.585Z,9.23
2018-10-02T10:05:17.511Z,9.18
2018-10-02T10:06:17.512Z,9.13
2018-10-02T10:07:17.495Z,9.18
2018-10-02T10:08:17.481Z,9.21
2018-10-02T10:09:17.478Z,9.20
2018-10-02T10:10:17.454Z,9.20
2018-10-02T10:11:17.477Z,9.24
2018-10-02T10:12:17.440Z,9.29
2018-10-02T10:13:17.440Z,9.32
2018-10-02T10:14:17.436Z,9.40
2018-10-02T10:15:17.399Z,9.28
2018-10-02T10:16:17.390Z,9.35
2018-10-02T10:17:17.481Z,9.36
2018-10-02T10:18:17.365Z,9.40
2018-10-02T10:19:17.383Z,9.47
2018-10-02T10:20:17.350Z,9.56
2018-10-02T10:21:17.338Z,9.51
2018-10-02T10:22:17.329Z,9.48
2018-10-02T10:23:17.311Z,9.48
2018-10-02T10:24:17.315Z,9.56
2018-10-02T10:25:17.311Z,9.54
2018-10-02T10:26:17.285Z,9.50
2018-10-02T10:27:17.266Z,9.53
2018-10-02T10:28:17.259Z,9.50
2018-10-02T10:29:17.254Z,9.56
2018-10-02T10:30:17.235Z,9.47
2018-10-02T10:31:17.249Z,9.40
2018-10-02T10:32:17.217Z,9.42
2018-10-02T10:33:17.259Z,9.47
2018-10-02T10:34:17.198Z,9.47
2018-10-02T10:35:17.188Z,9.51
2018-10-02T10:36:17.173Z,9.48
2018-10-02T10:37:17.184Z,9.40
2018-10-02T10:38:17.157Z,9.47
2018-10-02T10:39:17.555Z,9.40
2018-10-02T10:40:17.133Z,9.53
2018-10-02T10:41:17.115Z,9.39
2018-10-02T10:42:17.113Z,9.50
2018-10-02T10:43:17.101Z,9.58
2018-10-02T10:44:17.087Z,9.48
2018-10-02T10:45:17.080Z,9.40
2018-10-02T10:46:17.070Z,9.54
2018-10-02T10:47:17.065Z,9.46
2018-10-02T10:48:17.040Z,9.53
2018-10-02T10:49:17.028Z,9.53
2018-10-02T10:50:17.018Z,9.57
2018-10-02T10:51:17.010Z,9.47
2018-10-02T10:52:17.009Z,9.51
2018-10-02T10:53:16.986Z,9.47
2018-10-02T10:54:16.982Z,9.65
2018-10-02T10:55:16.976Z,9.66
2018-10-02T10:56:17.010Z,9.71
2018-10-02T10:57:16.945Z,9.60
2018-10-02T10:58:16.936Z,9.65
2018-10-02T10:59:16.916Z,9.66
2018-10-02T11:00:16.932Z,9.69
2018-10-02T11:01:16.907Z,9.76
2018-10-02T11:02:16.883Z,9.68
2018-10-02T11:03:16.882Z,9.68
2018-10-02T11:04:16.870Z,9.69
2018-10-02T11:05:16.855Z,9.74
2018-10-02T11:06:16.861Z,9.78
2018-10-02T11:07:16.830Z,9.81
2018-10-02T11:08:16.831Z,9.84
2018-10-02T11:09:16.837Z,9.79
2018-10-02T11:10:16.815Z,9.87
2018-10-02T11:11:16.795Z,9.91
2018-10-02T11:12:16.779Z,9.83
2018-10-02T11:13:16.775Z,9.93
2018-10-02T11:14:16.761Z,9.90
2018-10-02T11:15:16.824Z,9.97
2018-10-02T11:16:16.740Z,10.05
2018-10-02T11:17:16.726Z,9.94
2018-10-02T11:18:16.737Z,10.01
2018-10-02T11:19:16.699Z,10.05
2018-10-02T11:20:16.692Z,10.01
2018-10-02T11:21:16.681Z,10.05
2018-10-02T11:22:16.667Z,10.15
2018-10-02T11:23:16.675Z,10.20
2018-10-02T11:24:16.671Z,10.22
2018-10-02T11:25:16.656Z,10.22
2018-10-02T11:26:16.632Z,10.23
2018-10-02T11:27:16.617Z,10.22
2018-10-02T11:28:16.604Z,10.20
2018-10-02T11:29:16.596Z,10.26
2018-10-02T11:30:16.600Z,10.22
2018-10-02T11:31:16.620Z,10.32
2018-10-02T11:32:16.562Z,10.25
2018-10-02T11:33:16.567Z,10.30
2018-10-02T11:34:16.547Z,10.29
2018-10-02T11:35:16.594Z,10.29
2018-10-02T11:36:16.519Z,10.30
2018-10-02T11:37:16.560Z,10.36
2018-10-02T11:38:16.496Z,10.27
2018-10-02T11:39:16.500Z,10.18
2018-10-02T11:40:16.479Z,10.18
2018-10-02T11:41:16.468Z,10.17
2018-10-02T11:42:16.456Z,10.22
2018-10-02T11:43:16.480Z,10.27
2018-10-02T11:44:16.625Z,10.34
2018-10-02T11:45:16.424Z,10.27
2018-10-02T11:46:16.425Z,10.26
2018-10-02T11:47:16.398Z,10.30
2018-10-02T11:48:16.385Z,10.27
2018-10-02T11:49:16.425Z,10.36
2018-10-02T11:50:16.379Z,10.38
2018-10-02T11:51:16.360Z,10.32
2018-10-02T11:52:16.347Z,10.33
2018-10-02T11:53:16.337Z,10.30
2018-10-02T11:54:16.324Z,10.30
2018-10-02T11:55:16.334Z,10.38
2018-10-02T11:56:16.317Z,10.34
2018-10-02T11:57:16.286Z,10.34
2018-10-02T11:58:16.277Z,10.30
2018-10-02T11:59:16.271Z,10.33
2018-10-02T12:00:16.265Z,10.26
2018-10-02T12:01:16.453Z,10.41
2018-10-02T12:02:16.235Z,10.27
2018-10-02T12:03:16.237Z,10.29
2018-10-02T12:04:16.218Z,10.26
2018-10-02T12:05:16.226Z,10.29
2018-10-02T12:06:16.193Z,10.29
2018-10-02T12:07:16.180Z,10.26
2018-10-02T12:08:16.167Z,10.25
2018-10-02T12:09:16.183Z,10.27
2018-10-02T12:10:16.148Z,10.32
2018-10-02T12:11:16.151Z,10.30
2018-10-02T12:12:16.131Z,10.27
2018-10-02T12:13:16.162Z,10.36
2018-10-02T12:14:16.389Z,10.34
2018-10-02T12:15:16.192Z,10.33
2018-10-02T12:16:16.095Z,10.33
2018-10-02T12:17:16.078Z,10.40
2018-10-02T12:18:16.065Z,10.34
2018-10-02T12:19:16.101Z,10.33
2018-10-02T12:20:16.035Z,10.36
2018-10-02T12:21:16.025Z,10.45
2018-10-02T12:22:16.029Z,10.38
2018-10-02T12:23:16.012Z,10.38
2018-10-02T12:24:16.001Z,10.36
2018-10-02T12:25:15.994Z,10.38
2018-10-02T12:26:15.986Z,10.51
2018-10-02T12:27:15.963Z,10.48
2018-10-02T12:28:15.962Z,10.51
2018-10-02T12:29:15.936Z,10.45
2018-10-02T12:30:15.928Z,10.52
2018-10-02T12:31:15.962Z,10.56
2018-10-02T12:32:15.923Z,10.47
2018-10-02T12:33:15.903Z,10.38
2018-10-02T12:34:15.884Z,10.47
2018-10-02T12:35:15.894Z,10.41
2018-10-02T12:36:15.870Z,10.47
2018-10-02T12:37:15.857Z,10.45
2018-10-02T12:38:15.846Z,10.52
2018-10-02T12:39:15.858Z,10.45
2018-10-02T12:40:15.825Z,10.42
2018-10-02T12:41:15.817Z,10.47
2018-10-02T12:42:15.829Z,10.41
2018-10-02T12:43:15.789Z,10.51
2018-10-02T12:44:15.780Z,10.45
2018-10-02T12:45:15.786Z,10.40
2018-10-02T12:46:15.802Z,10.34
2018-10-02T12:47:15.745Z,10.42
2018-10-02T12:48:15.728Z,10.47
2018-10-02T12:49:15.726Z,10.41
2018-10-02T12:50:15.724Z,10.33
2018-10-02T12:51:15.713Z,10.36
2018-10-02T12:52:15.762Z,10.41
2018-10-02T12:53:15.789Z,10.36
2018-10-02T12:54:15.665Z,10.36
2018-10-02T12:55:15.691Z,10.42
2018-10-02T12:56:15.646Z,10.41
2018-10-02T12:57:15.639Z,10.45
2018-10-02T12:58:15.624Z,10.48
2018-10-02T12:59:15.678Z,10.42
2018-10-02T13:00:15.607Z,10.48
2018-10-02T13:01:15.603Z,10.53
2018-10-02T13:02:15.612Z,10.42
2018-10-02T13:03:15.570Z,10.44
2018-10-02T13:04:15.563Z,10.52
2018-10-02T13:05:15.568Z,10.47
2018-10-02T13:06:15.534Z,10.52
2018-10-02T13:07:15.543Z,10.51
2018-10-02T13:08:15.517Z,10.52
2018-10-02T13:09:15.543Z,10.51
2018-10-02T13:10:15.496Z,10.53
2018-10-02T13:11:15.480Z,10.55
2018-10-02T13:12:15.476Z,10.59
2018-10-02T13:13:15.549Z,10.52
2018-10-02T13:14:15.446Z,10.64